sensor_id;sensor_type;location;lat;lon;timestamp;pressure;altitude;pressure_sealevel;temperature;humidity
11343;BME280;5726;42.160;24.746;2024-03-02T00:02:12;99239.03;;;10.32;100.00
11343;BME280;5726;42.160;24.746;2024-03-02T00:04:39;99226.31;;;10.24;100.00
11343;BME280;5726;42.160;24.746;2024-03-02T00:07:06;99237.41;;;10.00;100.00
11343;BME280;5726;42.160;24.746;2024-03-02T00:09:32;99232.75;;;10.23;100.00
11343;BME280;5726;42.160;24.746;2024-03-02T00:12:01;99234.94;;;10.21;100.00
11343;BME280;5726;42.160;24.746;2024-03-02T00:14:30;99238.59;;;10.12;100.00
11343;BME280;5726;42.160;24.746;2024-03-02T00:16:56;99227.16;;;10.06;100.00
11343;BME280;5726;42.160;24.746;2024-03-02T00:19:22;99232.06;;;10.00;100.00
11343;BME280;5726;42.160;24.746;2024-03-02T00:21:48;99226.06;;;10.07;100.00
11343;BME280;5726;42.160;24.746;2024-03-02T00:24:34;99235.81;;;10.17;100.00
11343;BME280;5726;42.160;24.746;2024-03-02T00:27:01;99229.91;;;10.33;100.00
11343;BME280;5726;42.160;24.746;2024-03-02T00:29:29;99218.94;;;10.16;100.00
11343;BME280;5726;42.160;24.746;2024-03-02T00:31:55;99218.31;;;10.38;100.00
11343;BME280;5726;42.160;24.746;2024-03-02T00:34:21;99219.59;;;10.40;100.00
11343;BME280;5726;42.160;24.746;2024-03-02T00:36:47;99224.47;;;10.38;100.00
11343;BME280;5726;42.160;24.746;2024-03-02T00:39:15;99221.59;;;10.35;100.00
11343;BME280;5726;42.160;24.746;2024-03-02T00:41:42;99217.59;;;10.32;100.00
11343;BME280;5726;42.160;24.746;2024-03-02T00:44:10;99214.34;;;10.35;100.00
11343;BME280;5726;42.160;24.746;2024-03-02T00:46:40;99205.94;;;10.55;100.00
11343;BME280;5726;42.160;24.746;2024-03-02T00:49:18;99211.06;;;10.38;100.00
11343;BME280;5726;42.160;24.746;2024-03-02T00:51:51;99205.72;;;10.38;100.00
11343;BME280;5726;42.160;24.746;2024-03-02T00:54:25;99199.19;;;10.57;100.00
11343;BME280;5726;42.160;24.746;2024-03-02T00:56:52;99194.31;;;10.46;100.00
11343;BME280;5726;42.160;24.746;2024-03-02T00:59:21;99190.59;;;10.29;100.00
11343;BME280;5726;42.160;24.746;2024-03-02T01:01:47;99189.63;;;10.38;100.00
11343;BME280;5726;42.160;24.746;2024-03-02T01:04:14;99188.22;;;10.27;100.00
11343;BME280;5726;42.160;24.746;2024-03-02T01:06:39;99195.41;;;10.45;100.00
11343;BME280;5726;42.160;24.746;2024-03-02T01:09:05;99177.16;;;10.60;100.00
11343;BME280;5726;42.160;24.746;2024-03-02T01:11:30;99184.72;;;10.58;100.00
11343;BME280;5726;42.160;24.746;2024-03-02T01:13:56;99171.75;;;10.34;100.00
11343;BME280;5726;42.160;24.746;2024-03-02T01:16:22;99169.59;;;10.49;100.00
11343;BME280;5726;42.160;24.746;2024-03-02T01:18:47;99172.53;;;10.34;100.00
11343;BME280;5726;42.160;24.746;2024-03-02T01:21:13;99186.34;;;10.41;100.00
11343;BME280;5726;42.160;24.746;2024-03-02T01:23:38;99174.94;;;10.36;100.00
11343;BME280;5726;42.160;24.746;2024-03-02T01:26:04;99176.69;;;10.13;100.00
11343;BME280;5726;42.160;24.746;2024-03-02T01:28:29;99169.47;;;10.27;100.00
11343;BME280;5726;42.160;24.746;2024-03-02T01:30:55;99165.19;;;10.26;100.00
11343;BME280;5726;42.160;24.746;2024-03-02T01:33:21;99170.59;;;10.08;100.00
11343;BME280;5726;42.160;24.746;2024-03-02T01:35:46;99168.56;;;10.18;100.00
11343;BME280;5726;42.160;24.746;2024-03-02T01:38:13;99170.75;;;9.98;100.00
11343;BME280;5726;42.160;24.746;2024-03-02T01:40:38;99172.50;;;10.07;100.00
11343;BME280;5726;42.160;24.746;2024-03-02T01:43:05;99165.97;;;10.27;100.00
11343;BME280;5726;42.160;24.746;2024-03-02T01:45:31;99177.09;;;10.20;100.00
11343;BME280;5726;42.160;24.746;2024-03-02T01:47:58;99175.34;;;10.43;100.00
11343;BME280;5726;42.160;24.746;2024-03-02T01:50:31;99165.34;;;10.16;100.00
11343;BME280;5726;42.160;24.746;2024-03-02T01:52:57;99160.69;;;10.08;100.00
11343;BME280;5726;42.160;24.746;2024-03-02T01:55:23;99171.31;;;10.13;100.00
11343;BME280;5726;42.160;24.746;2024-03-02T01:57:49;99168.72;;;10.08;100.00
11343;BME280;5726;42.160;24.746;2024-03-02T02:00:19;99177.66;;;10.17;100.00
11343;BME280;5726;42.160;24.746;2024-03-02T02:02:46;99167.78;;;10.00;100.00
11343;BME280;5726;42.160;24.746;2024-03-02T02:05:13;99168.72;;;10.08;100.00
11343;BME280;5726;42.160;24.746;2024-03-02T02:07:40;99157.59;;;10.02;100.00
11343;BME280;5726;42.160;24.746;2024-03-02T02:10:06;99159.16;;;10.02;100.00
11343;BME280;5726;42.160;24.746;2024-03-02T02:12:32;99157.91;;;10.00;100.00
11343;BME280;5726;42.160;24.746;2024-03-02T02:14:58;99154.50;;;9.95;100.00
11343;BME280;5726;42.160;24.746;2024-03-02T02:17:23;99149.03;;;10.00;100.00
11343;BME280;5726;42.160;24.746;2024-03-02T02:19:48;99160.38;;;10.10;100.00
11343;BME280;5726;42.160;24.746;2024-03-02T02:22:14;99164.19;;;10.22;100.00
11343;BME280;5726;42.160;24.746;2024-03-02T02:24:42;99160.47;;;10.05;100.00
11343;BME280;5726;42.160;24.746;2024-03-02T02:27:09;99153.91;;;9.98;100.00
11343;BME280;5726;42.160;24.746;2024-03-02T02:29:35;99159.56;;;9.96;100.00
11343;BME280;5726;42.160;24.746;2024-03-02T02:32:01;99153.69;;;9.76;100.00
11343;BME280;5726;42.160;24.746;2024-03-02T02:34:27;99154.63;;;9.85;100.00
11343;BME280;5726;42.160;24.746;2024-03-02T02:36:53;99154.56;;;9.71;100.00
11343;BME280;5726;42.160;24.746;2024-03-02T02:39:21;99154.44;;;9.63;100.00
11343;BME280;5726;42.160;24.746;2024-03-02T02:41:47;99143.97;;;9.48;100.00
11343;BME280;5726;42.160;24.746;2024-03-02T02:44:13;99146.47;;;9.58;100.00
11343;BME280;5726;42.160;24.746;2024-03-02T02:46:39;99142.41;;;9.79;100.00
11343;BME280;5726;42.160;24.746;2024-03-02T02:49:05;99141.59;;;9.78;100.00
11343;BME280;5726;42.160;24.746;2024-03-02T02:51:30;99141.66;;;9.92;100.00
11343;BME280;5726;42.160;24.746;2024-03-02T02:53:56;99141.22;;;9.85;100.00
11343;BME280;5726;42.160;24.746;2024-03-02T02:56:21;99152.25;;;10.02;100.00
11343;BME280;5726;42.160;24.746;2024-03-02T02:58:47;99150.38;;;9.84;100.00
11343;BME280;5726;42.160;24.746;2024-03-02T03:01:12;99153.19;;;9.74;100.00
11343;BME280;5726;42.160;24.746;2024-03-02T03:03:38;99160.06;;;9.80;100.00
11343;BME280;5726;42.160;24.746;2024-03-02T03:06:04;99144.22;;;9.65;100.00
11343;BME280;5726;42.160;24.746;2024-03-02T03:08:29;99156.81;;;9.83;100.00
11343;BME280;5726;42.160;24.746;2024-03-02T03:10:55;99156.28;;;9.99;100.00
11343;BME280;5726;42.160;24.746;2024-03-02T03:13:20;99153.75;;;9.89;100.00
11343;BME280;5726;42.160;24.746;2024-03-02T03:15:46;99161.44;;;9.77;100.00
11343;BME280;5726;42.160;24.746;2024-03-02T03:18:11;99150.94;;;9.81;100.00
11343;BME280;5726;42.160;24.746;2024-03-02T03:20:37;99154.50;;;9.76;100.00
11343;BME280;5726;42.160;24.746;2024-03-02T03:23:02;99154.41;;;9.81;100.00
11343;BME280;5726;42.160;24.746;2024-03-02T03:25:29;99164.97;;;9.73;100.00
11343;BME280;5726;42.160;24.746;2024-03-02T03:27:55;99147.53;;;9.75;100.00
11343;BME280;5726;42.160;24.746;2024-03-02T03:30:21;99142.69;;;9.77;100.00
11343;BME280;5726;42.160;24.746;2024-03-02T03:32:47;99143.56;;;9.73;100.00
11343;BME280;5726;42.160;24.746;2024-03-02T03:35:13;99140.44;;;9.84;100.00
11343;BME280;5726;42.160;24.746;2024-03-02T03:37:40;99139.81;;;9.74;100.00
11343;BME280;5726;42.160;24.746;2024-03-02T03:40:06;99136.34;;;9.73;100.00
11343;BME280;5726;42.160;24.746;2024-03-02T03:42:38;99135.81;;;9.71;100.00
11343;BME280;5726;42.160;24.746;2024-03-02T03:45:04;99134.66;;;9.77;100.00
11343;BME280;5726;42.160;24.746;2024-03-02T03:47:33;99142.69;;;9.77;100.00
11343;BME280;5726;42.160;24.746;2024-03-02T03:49:59;99146.19;;;9.78;100.00
11343;BME280;5726;42.160;24.746;2024-03-02T03:52:24;99141.22;;;9.85;100.00
11343;BME280;5726;42.160;24.746;2024-03-02T03:54:50;99133.78;;;10.00;100.00
11343;BME280;5726;42.160;24.746;2024-03-02T03:57:16;99135.59;;;10.04;100.00
11343;BME280;5726;42.160;24.746;2024-03-02T03:59:42;99136.56;;;9.77;100.00
11343;BME280;5726;42.160;24.746;2024-03-02T04:02:08;99137.84;;;9.79;100.00
11343;BME280;5726;42.160;24.746;2024-03-02T04:04:34;99139.81;;;9.74;100.00
11343;BME280;5726;42.160;24.746;2024-03-02T04:07:00;99142.19;;;9.75;100.00
11343;BME280;5726;42.160;24.746;2024-03-02T04:09:25;99142.47;;;9.74;100.00
11343;BME280;5726;42.160;24.746;2024-03-02T04:11:51;99152.47;;;9.68;100.00
11343;BME280;5726;42.160;24.746;2024-03-02T04:14:16;99156.94;;;9.73;100.00
11343;BME280;5726;42.160;24.746;2024-03-02T04:16:42;99157.28;;;9.85;100.00
11343;BME280;5726;42.160;24.746;2024-03-02T04:19:07;99150.50;;;9.74;100.00
11343;BME280;5726;42.160;24.746;2024-03-02T04:21:33;99158.63;;;9.69;100.00
11343;BME280;5726;42.160;24.746;2024-03-02T04:23:58;99147.34;;;9.72;100.00
11343;BME280;5726;42.160;24.746;2024-03-02T04:26:25;99146.13;;;9.64;100.00
11343;BME280;5726;42.160;24.746;2024-03-02T04:28:51;99151.53;;;9.41;100.00
11343;BME280;5726;42.160;24.746;2024-03-02T04:31:17;99153.41;;;9.59;100.00
11343;BME280;5726;42.160;24.746;2024-03-02T04:33:43;99148.28;;;9.62;100.00
11343;BME280;5726;42.160;24.746;2024-03-02T04:36:08;99148.50;;;9.66;100.00
11343;BME280;5726;42.160;24.746;2024-03-02T04:38:37;99156.19;;;9.54;100.00
11343;BME280;5726;42.160;24.746;2024-03-02T04:41:04;99149.38;;;9.61;100.00
11343;BME280;5726;42.160;24.746;2024-03-02T04:43:31;99149.59;;;9.65;100.00
11343;BME280;5726;42.160;24.746;2024-03-02T04:45:58;99150.38;;;9.65;100.00
11343;BME280;5726;42.160;24.746;2024-03-02T04:48:23;99149.50;;;9.70;100.00
11343;BME280;5726;42.160;24.746;2024-03-02T04:50:49;99142.81;;;9.54;100.00
11343;BME280;5726;42.160;24.746;2024-03-02T04:53:14;99145.16;;;9.74;100.00
11343;BME280;5726;42.160;24.746;2024-03-02T04:55:40;99150.66;;;9.64;100.00
11343;BME280;5726;42.160;24.746;2024-03-02T04:58:06;99142.88;;;9.67;100.00
11343;BME280;5726;42.160;24.746;2024-03-02T05:00:32;99145.78;;;9.84;100.00
11343;BME280;5726;42.160;24.746;2024-03-02T05:02:58;99157.03;;;9.68;100.00
11343;BME280;5726;42.160;24.746;2024-03-02T05:05:23;99155.44;;;9.67;100.00
11343;BME280;5726;42.160;24.746;2024-03-02T05:07:49;99162.66;;;9.85;100.00
11343;BME280;5726;42.160;24.746;2024-03-02T05:10:14;99164.47;;;9.71;100.00
11343;BME280;5726;42.160;24.746;2024-03-02T05:12:40;99165.25;;;9.90;100.00
11343;BME280;5726;42.160;24.746;2024-03-02T05:15:12;99160.97;;;10.07;100.00
11343;BME280;5726;42.160;24.746;2024-03-02T05:17:40;99170.72;;;10.16;100.00
11343;BME280;5726;42.160;24.746;2024-03-02T05:20:07;99160.81;;;10.17;100.00
11343;BME280;5726;42.160;24.746;2024-03-02T05:22:36;99165.06;;;10.90;100.00
11343;BME280;5726;42.160;24.746;2024-03-02T05:25:02;99167.03;;;10.97;100.00
11343;BME280;5726;42.160;24.746;2024-03-02T05:27:28;99166.34;;;11.05;100.00
11343;BME280;5726;42.160;24.746;2024-03-02T05:29:54;99166.72;;;11.26;100.00
11343;BME280;5726;42.160;24.746;2024-03-02T05:32:20;99166.91;;;11.78;100.00
11343;BME280;5726;42.160;24.746;2024-03-02T05:34:45;99179.38;;;11.60;100.00
11343;BME280;5726;42.160;24.746;2024-03-02T05:37:11;99178.75;;;11.28;100.00
11343;BME280;5726;42.160;24.746;2024-03-02T05:39:36;99171.31;;;11.12;100.00
11343;BME280;5726;42.160;24.746;2024-03-02T05:42:02;99184.50;;;10.82;100.00
11343;BME280;5726;42.160;24.746;2024-03-02T05:44:28;99194.00;;;10.48;100.00
11343;BME280;5726;42.160;24.746;2024-03-02T05:46:54;99195.56;;;10.35;100.00
11343;BME280;5726;42.160;24.746;2024-03-02T05:49:20;99188.59;;;10.21;100.00
11343;BME280;5726;42.160;24.746;2024-03-02T05:51:46;99184.63;;;10.18;100.00
11343;BME280;5726;42.160;24.746;2024-03-02T05:54:11;99190.78;;;10.19;100.00
11343;BME280;5726;42.160;24.746;2024-03-02T05:56:37;99194.22;;;10.19;100.00
11343;BME280;5726;42.160;24.746;2024-03-02T05:59:02;99189.94;;;10.05;100.00
11343;BME280;5726;42.160;24.746;2024-03-02T06:01:47;99178.22;;;9.83;100.00
11343;BME280;5726;42.160;24.746;2024-03-02T06:04:13;99185.56;;;9.96;100.00
11343;BME280;5726;42.160;24.746;2024-03-02T06:06:40;99182.59;;;9.92;100.00
11343;BME280;5726;42.160;24.746;2024-03-02T06:09:06;99182.28;;;9.99;100.00
11343;BME280;5726;42.160;24.746;2024-03-02T06:11:39;99186.88;;;10.11;100.00
11343;BME280;5726;42.160;24.746;2024-03-02T06:14:06;99179.25;;;10.18;100.00
11343;BME280;5726;42.160;24.746;2024-03-02T06:16:32;99175.09;;;10.12;100.00
11343;BME280;5726;42.160;24.746;2024-03-02T06:18:58;99182.72;;;10.19;100.00
11343;BME280;5726;42.160;24.746;2024-03-02T06:21:24;99182.38;;;10.39;100.00
11343;BME280;5726;42.160;24.746;2024-03-02T06:23:49;99200.94;;;10.35;100.00
11343;BME280;5726;42.160;24.746;2024-03-02T06:26:15;99196.66;;;10.02;100.00
11343;BME280;5726;42.160;24.746;2024-03-02T06:28:41;99190.97;;;10.22;100.00
11343;BME280;5726;42.160;24.746;2024-03-02T06:31:06;99198.94;;;10.27;100.00
11343;BME280;5726;42.160;24.746;2024-03-02T06:33:32;99192.44;;;10.47;100.00
11343;BME280;5726;42.160;24.746;2024-03-02T06:35:57;99192.94;;;10.48;100.00
11343;BME280;5726;42.160;24.746;2024-03-02T06:38:23;99197.09;;;10.54;100.00
11343;BME280;5726;42.160;24.746;2024-03-02T06:40:50;99198.34;;;10.30;100.00
11343;BME280;5726;42.160;24.746;2024-03-02T06:43:15;99199.13;;;10.31;100.00
11343;BME280;5726;42.160;24.746;2024-03-02T06:45:41;99205.31;;;10.45;100.00
11343;BME280;5726;42.160;24.746;2024-03-02T06:48:07;99203.19;;;10.28;100.00
11343;BME280;5726;42.160;24.746;2024-03-02T06:50:32;99199.38;;;10.61;100.00
11343;BME280;5726;42.160;24.746;2024-03-02T06:52:58;99207.66;;;10.64;100.00
11343;BME280;5726;42.160;24.746;2024-03-02T06:55:24;99212.06;;;10.42;100.00
11343;BME280;5726;42.160;24.746;2024-03-02T06:57:52;99216.91;;;10.40;100.00
11343;BME280;5726;42.160;24.746;2024-03-02T07:00:18;99221.59;;;10.16;100.00
11343;BME280;5726;42.160;24.746;2024-03-02T07:02:45;99216.13;;;10.08;100.00
11343;BME280;5726;42.160;24.746;2024-03-02T07:05:11;99222.28;;;10.40;100.00
11343;BME280;5726;42.160;24.746;2024-03-02T07:07:37;99219.31;;;10.42;100.00
11343;BME280;5726;42.160;24.746;2024-03-02T07:10:05;99217.25;;;10.52;100.00
11343;BME280;5726;42.160;24.746;2024-03-02T07:12:32;99218.28;;;10.24;100.00
11343;BME280;5726;42.160;24.746;2024-03-02T07:14:58;99207.63;;;10.19;100.00
11343;BME280;5726;42.160;24.746;2024-03-02T07:17:30;99190.22;;;10.35;100.00
11343;BME280;5726;42.160;24.746;2024-03-02T07:19:56;99196.19;;;10.46;100.00
11343;BME280;5726;42.160;24.746;2024-03-02T07:22:22;99194.91;;;10.56;100.00
11343;BME280;5726;42.160;24.746;2024-03-02T07:24:48;99211.09;;;10.51;100.00
11343;BME280;5726;42.160;24.746;2024-03-02T07:27:15;99211.38;;;10.50;100.00
11343;BME280;5726;42.160;24.746;2024-03-02T07:29:41;99213.31;;;10.63;100.00
11343;BME280;5726;42.160;24.746;2024-03-02T07:32:08;99221.81;;;10.51;100.00
11343;BME280;5726;42.160;24.746;2024-03-02T07:34:34;99213.34;;;10.45;100.00
11343;BME280;5726;42.160;24.746;2024-03-02T07:37:00;99230.16;;;10.50;100.00
11343;BME280;5726;42.160;24.746;2024-03-02T07:39:26;99222.84;;;10.69;100.00
11343;BME280;5726;42.160;24.746;2024-03-02T07:41:51;99230.16;;;10.50;100.00
11343;BME280;5726;42.160;24.746;2024-03-02T07:44:17;99222.13;;;10.63;100.00
11343;BME280;5726;42.160;24.746;2024-03-02T07:46:45;99230.75;;;10.47;100.00
11343;BME280;5726;42.160;24.746;2024-03-02T07:49:20;99225.97;;;10.44;100.00
11343;BME280;5726;42.160;24.746;2024-03-02T07:51:46;99219.19;;;10.33;100.00
11343;BME280;5726;42.160;24.746;2024-03-02T07:54:12;99214.66;;;10.47;100.00
11343;BME280;5726;42.160;24.746;2024-03-02T07:56:37;99224.31;;;10.48;100.00
11343;BME280;5726;42.160;24.746;2024-03-02T07:59:03;99217.06;;;10.62;100.00
11343;BME280;5726;42.160;24.746;2024-03-02T08:01:29;99222.44;;;10.62;100.00
11343;BME280;5726;42.160;24.746;2024-03-02T08:03:56;99231.56;;;10.61;100.00
11343;BME280;5726;42.160;24.746;2024-03-02T08:06:24;99230.97;;;10.64;100.00
11343;BME280;5726;42.160;24.746;2024-03-02T08:09:01;99234.97;;;10.80;100.00
11343;BME280;5726;42.160;24.746;2024-03-02T08:11:27;99244.22;;;11.00;100.00
11343;BME280;5726;42.160;24.746;2024-03-02T08:13:52;99239.66;;;10.88;100.00
11343;BME280;5726;42.160;24.746;2024-03-02T08:16:21;99230.03;;;10.87;100.00
11343;BME280;5726;42.160;24.746;2024-03-02T08:18:48;99241.34;;;10.84;100.00
11343;BME280;5726;42.160;24.746;2024-03-02T08:21:14;99233.75;;;10.59;100.00
11343;BME280;5726;42.160;24.746;2024-03-02T08:23:40;99242.13;;;10.84;100.00
11343;BME280;5726;42.160;24.746;2024-03-02T08:26:07;99229.81;;;10.83;100.00
11343;BME280;5726;42.160;24.746;2024-03-02T08:28:33;99217.81;;;10.81;100.00
11343;BME280;5726;42.160;24.746;2024-03-02T08:30:59;99209.47;;;10.96;100.00
11343;BME280;5726;42.160;24.746;2024-03-02T08:33:25;99223.47;;;10.93;100.00
11343;BME280;5726;42.160;24.746;2024-03-02T08:35:50;99219.50;;;11.17;100.00
11343;BME280;5726;42.160;24.746;2024-03-02T08:38:16;99233.50;;;11.00;100.00
11343;BME280;5726;42.160;24.746;2024-03-02T08:40:42;99216.22;;;11.06;100.00
11343;BME280;5726;42.160;24.746;2024-03-02T08:43:07;99230.41;;;10.94;100.00
11343;BME280;5726;42.160;24.746;2024-03-02T08:45:33;99228.63;;;11.16;100.00
11343;BME280;5726;42.160;24.746;2024-03-02T08:48:00;99225.28;;;11.10;100.00
11343;BME280;5726;42.160;24.746;2024-03-02T08:50:25;99224.75;;;11.08;100.00
11343;BME280;5726;42.160;24.746;2024-03-02T08:52:51;99217.69;;;10.86;100.00
11343;BME280;5726;42.160;24.746;2024-03-02T08:55:16;99227.25;;;10.92;100.00
11343;BME280;5726;42.160;24.746;2024-03-02T08:57:42;99217.41;;;11.14;100.00
11343;BME280;5726;42.160;24.746;2024-03-02T09:00:08;99214.53;;;11.10;100.00
11343;BME280;5726;42.160;24.746;2024-03-02T09:02:34;99207.38;;;11.33;100.00
11343;BME280;5726;42.160;24.746;2024-03-02T09:04:59;99215.59;;;11.36;100.00
11343;BME280;5726;42.160;24.746;2024-03-02T09:07:25;99215.13;;;11.34;100.00
11343;BME280;5726;42.160;24.746;2024-03-02T09:09:52;99225.47;;;11.00;100.00
11343;BME280;5726;42.160;24.746;2024-03-02T09:12:18;99221.78;;;11.10;100.00
11343;BME280;5726;42.160;24.746;2024-03-02T09:14:44;99213.72;;;11.23;100.00
11343;BME280;5726;42.160;24.746;2024-03-02T09:17:10;99214.72;;;11.00;100.00
11343;BME280;5726;42.160;24.746;2024-03-02T09:19:36;99219.09;;;11.10;100.00
11343;BME280;5726;42.160;24.746;2024-03-02T09:22:02;99225.84;;;11.34;100.00
11343;BME280;5726;42.160;24.746;2024-03-02T09:24:31;99234.00;;;11.29;100.00
11343;BME280;5726;42.160;24.746;2024-03-02T09:26:56;99228.63;;;11.29;100.00
11343;BME280;5726;42.160;24.746;2024-03-02T09:29:21;99233.31;;;11.37;100.00
11343;BME280;5726;42.160;24.746;2024-03-02T09:31:47;99227.41;;;11.35;100.00
11343;BME280;5726;42.160;24.746;2024-03-02T09:34:12;99227.13;;;11.23;100.00
11343;BME280;5726;42.160;24.746;2024-03-02T09:36:39;99223.47;;;11.19;100.00
11343;BME280;5726;42.160;24.746;2024-03-02T09:39:06;99222.94;;;11.31;100.00
11343;BME280;5726;42.160;24.746;2024-03-02T09:41:33;99225.03;;;11.34;100.00
11343;BME280;5726;42.160;24.746;2024-03-02T09:43:59;99227.63;;;11.39;100.00
11343;BME280;5726;42.160;24.746;2024-03-02T09:46:25;99226.84;;;11.51;100.00
11343;BME280;5726;42.160;24.746;2024-03-02T09:48:50;99229.22;;;11.53;100.00
11343;BME280;5726;42.160;24.746;2024-03-02T09:51:16;99232.78;;;11.62;100.00
11343;BME280;5726;42.160;24.746;2024-03-02T09:53:45;99229.81;;;11.37;100.00
11343;BME280;5726;42.160;24.746;2024-03-02T09:56:11;99230.78;;;11.67;100.00
11343;BME280;5726;42.160;24.746;2024-03-02T09:58:38;99230.09;;;11.62;100.00
11343;BME280;5726;42.160;24.746;2024-03-02T10:01:06;99221.22;;;11.75;100.00
11343;BME280;5726;42.160;24.746;2024-03-02T10:03:33;99220.00;;;11.81;100.00
11343;BME280;5726;42.160;24.746;2024-03-02T10:06:21;99214.97;;;11.66;100.00
11343;BME280;5726;42.160;24.746;2024-03-02T10:08:48;99220.53;;;11.69;100.00
11343;BME280;5726;42.160;24.746;2024-03-02T10:11:33;99222.53;;;11.99;100.00
11343;BME280;5726;42.160;24.746;2024-03-02T10:14:12;99215.13;;;11.83;100.00
11343;BME280;5726;42.160;24.746;2024-03-02T10:16:39;99221.97;;;11.89;100.00
11343;BME280;5726;42.160;24.746;2024-03-02T10:19:21;99219.75;;;11.69;100.00
11343;BME280;5726;42.160;24.746;2024-03-02T10:21:51;99219.03;;;11.77;100.00
11343;BME280;5726;42.160;24.746;2024-03-02T10:24:21;99211.81;;;11.86;100.00
11343;BME280;5726;42.160;24.746;2024-03-02T10:26:48;99212.78;;;11.68;100.00
11343;BME280;5726;42.160;24.746;2024-03-02T10:29:14;99216.47;;;11.72;100.00
11343;BME280;5726;42.160;24.746;2024-03-02T10:31:43;99209.41;;;11.76;100.00
11343;BME280;5726;42.160;24.746;2024-03-02T10:34:10;99210.09;;;11.68;100.00
11343;BME280;5726;42.160;24.746;2024-03-02T10:36:37;99205.56;;;11.55;100.00
11343;BME280;5726;42.160;24.746;2024-03-02T10:39:03;99209.31;;;11.67;100.00
11343;BME280;5726;42.160;24.746;2024-03-02T10:41:34;99201.47;;;11.57;100.00
11343;BME280;5726;42.160;24.746;2024-03-02T10:44:08;99194.31;;;11.88;100.00
11343;BME280;5726;42.160;24.746;2024-03-02T10:46:35;99187.78;;;11.81;100.00
11343;BME280;5726;42.160;24.746;2024-03-02T10:49:02;99180.69;;;11.63;100.00
11343;BME280;5726;42.160;24.746;2024-03-02T10:51:30;99181.53;;;11.72;100.00
11343;BME280;5726;42.160;24.746;2024-03-02T10:54:02;99177.78;;;11.73;100.00
11343;BME280;5726;42.160;24.746;2024-03-02T10:56:29;99178.38;;;11.92;100.00
11343;BME280;5726;42.160;24.746;2024-03-02T11:02:00;99174.84;;;11.83;100.00
11343;BME280;5726;42.160;24.746;2024-03-02T11:04:27;99176.19;;;12.15;100.00
11343;BME280;5726;42.160;24.746;2024-03-02T11:06:58;99171.06;;;12.57;100.00
11343;BME280;5726;42.160;24.746;2024-03-02T11:09:27;99166.25;;;13.23;100.00
11343;BME280;5726;42.160;24.746;2024-03-02T11:12:03;99165.03;;;13.54;100.00
11343;BME280;5726;42.160;24.746;2024-03-02T11:14:31;99174.06;;;13.67;100.00
11343;BME280;5726;42.160;24.746;2024-03-02T11:17:01;99167.44;;;13.73;100.00
11343;BME280;5726;42.160;24.746;2024-03-02T11:19:29;99160.13;;;13.65;100.00
11343;BME280;5726;42.160;24.746;2024-03-02T11:21:56;99165.22;;;13.75;100.00
11343;BME280;5726;42.160;24.746;2024-03-02T11:26:53;99172.16;;;14.26;100.00
11343;BME280;5726;42.160;24.746;2024-03-02T11:32:16;99158.69;;;14.34;100.00
11343;BME280;5726;42.160;24.746;2024-03-02T11:34:44;99150.56;;;14.43;100.00
11343;BME280;5726;42.160;24.746;2024-03-02T11:37:12;99157.59;;;14.27;100.00
11343;BME280;5726;42.160;24.746;2024-03-02T11:39:42;99149.97;;;14.29;100.00
11343;BME280;5726;42.160;24.746;2024-03-02T11:42:08;99151.88;;;14.37;100.00
11343;BME280;5726;42.160;24.746;2024-03-02T11:44:40;99142.63;;;14.38;100.00
11343;BME280;5726;42.160;24.746;2024-03-02T11:47:08;99150.47;;;14.14;100.00
11343;BME280;5726;42.160;24.746;2024-03-02T11:49:50;99128.88;;;14.31;100.00
11343;BME280;5726;42.160;24.746;2024-03-02T11:52:20;99131.78;;;13.92;100.00
11343;BME280;5726;42.160;24.746;2024-03-02T11:54:48;99133.22;;;13.73;100.00
11343;BME280;5726;42.160;24.746;2024-03-02T11:57:21;99130.19;;;13.66;100.00
11343;BME280;5726;42.160;24.746;2024-03-02T11:59:49;99138.75;;;13.77;100.00
11343;BME280;5726;42.160;24.746;2024-03-02T12:02:17;99134.31;;;13.64;100.00
11343;BME280;5726;42.160;24.746;2024-03-02T12:04:43;99138.28;;;13.75;100.00
11343;BME280;5726;42.160;24.746;2024-03-02T12:07:10;99125.44;;;13.46;100.00
11343;BME280;5726;42.160;24.746;2024-03-02T12:09:36;99126.56;;;13.54;100.00
11343;BME280;5726;42.160;24.746;2024-03-02T12:12:03;99123.03;;;13.37;100.00
11343;BME280;5726;42.160;24.746;2024-03-02T12:14:30;99115.75;;;13.29;100.00
11343;BME280;5726;42.160;24.746;2024-03-02T12:16:55;99112.81;;;12.83;100.00
11343;BME280;5726;42.160;24.746;2024-03-02T12:19:24;99119.78;;;12.92;100.00
11343;BME280;5726;42.160;24.746;2024-03-02T12:21:49;99110.97;;;12.70;100.00
11343;BME280;5726;42.160;24.746;2024-03-02T12:24:15;99110.63;;;12.93;100.00
11343;BME280;5726;42.160;24.746;2024-03-02T12:26:41;99106.81;;;12.86;100.00
11343;BME280;5726;42.160;24.746;2024-03-02T12:29:06;99098.66;;;12.69;100.00
11343;BME280;5726;42.160;24.746;2024-03-02T12:31:32;99108.66;;;12.77;100.00
11343;BME280;5726;42.160;24.746;2024-03-02T12:33:58;99110.66;;;12.63;100.00
11343;BME280;5726;42.160;24.746;2024-03-02T12:36:24;99114.91;;;12.56;100.00
11343;BME280;5726;42.160;24.746;2024-03-02T12:38:52;99109.94;;;12.80;100.00
11343;BME280;5726;42.160;24.746;2024-03-02T12:41:18;99107.03;;;12.68;100.00
11343;BME280;5726;42.160;24.746;2024-03-02T12:43:43;99103.56;;;12.76;100.00
11343;BME280;5726;42.160;24.746;2024-03-02T12:46:10;99120.28;;;12.56;100.00
11343;BME280;5726;42.160;24.746;2024-03-02T12:48:36;99119.00;;;12.53;100.00
11343;BME280;5726;42.160;24.746;2024-03-02T12:51:02;99118.94;;;12.75;100.00
11343;BME280;5726;42.160;24.746;2024-03-02T12:53:28;99125.38;;;12.66;100.00
11343;BME280;5726;42.160;24.746;2024-03-02T12:55:53;99125.63;;;12.86;100.00
11343;BME280;5726;42.160;24.746;2024-03-02T12:58:22;99129.16;;;12.95;100.00
11343;BME280;5726;42.160;24.746;2024-03-02T13:00:48;99124.84;;;12.86;100.00